Time;durP1;ratioP1;P1;durP2;ratioP2;P2;SDS_P1;SDS_P2;PMS_P1;PMS_P2;Temp;Humidity;BMP_temperature;BMP_pressure;BME280_temperature;BME280_humidity;BME280_pressure;Samples;Min_cycle;Max_cycle;Signal;HPM_P1;HPM_P2
2024/03/20 00:01:45;;;;;;;14.40;7.00;;;12.60;90.80;;;;;;5093587;28;20638;-80
2024/03/20 00:04:11;;;;;;;14.60;7.33;;;12.60;92.50;;;;;;5095562;28;20669;-79
2024/03/20 00:06:37;;;;;;;11.77;6.03;;;12.40;93.90;;;;;;5095739;28;20170;-78
2024/03/20 00:09:02;;;;;;;12.27;6.00;;;12.50;94.70;;;;;;5095678;28;20192;-81
2024/03/20 00:11:28;;;;;;;13.13;6.13;;;12.50;94.80;;;;;;5095085;28;20166;-79
2024/03/20 00:13:54;;;;;;;16.43;6.67;;;12.50;94.10;;;;;;5094437;28;20239;-81
2024/03/20 00:16:20;;;;;;;14.30;6.20;;;12.50;93.80;;;;;;5094891;28;20177;-78
2024/03/20 00:18:46;;;;;;;13.93;6.60;;;12.40;94.50;;;;;;5094973;28;20195;-80
2024/03/20 00:21:12;;;;;;;13.50;6.53;;;12.30;95.40;;;;;;5094258;28;20167;-80
2024/03/20 00:23:38;;;;;;;12.90;6.03;;;12.40;95.50;;;;;;5093825;28;20212;-79
2024/03/20 00:26:04;;;;;;;13.13;6.73;;;12.20;96.20;;;;;;5094768;28;20205;-79
2024/03/20 00:28:30;;;;;;;15.13;6.60;;;12.20;98.00;;;;;;5094704;28;20177;-79
2024/03/20 00:30:56;;;;;;;12.10;6.47;;;12.30;98.10;;;;;;5094657;28;20629;-80
2024/03/20 00:33:22;;;;;;;15.33;6.67;;;12.30;97.10;;;;;;5092756;28;20418;-80
2024/03/20 00:35:47;;;;;;;11.97;6.90;;;12.30;96.90;;;;;;5093412;28;20223;-79
2024/03/20 00:38:13;;;;;;;13.40;6.83;;;12.20;98.40;;;;;;5093857;28;20180;-80
2024/03/20 00:40:39;;;;;;;12.47;6.80;;;12.10;99.90;;;;;;5094927;28;20170;-80
2024/03/20 00:43:04;;;;;;;15.83;7.27;;;12.00;99.90;;;;;;5094541;28;20212;-80
2024/03/20 00:45:30;;;;;;;12.00;7.17;;;12.00;99.90;;;;;;5093340;28;20638;-80
2024/03/20 00:47:56;;;;;;;11.60;7.00;;;11.90;99.90;;;;;;5093899;28;20604;-80
2024/03/20 00:50:21;;;;;;;13.70;6.77;;;12.00;99.90;;;;;;5092726;28;20202;-81
2024/03/20 00:52:47;;;;;;;12.07;6.23;;;12.00;99.90;;;;;;5093177;28;20203;-80
2024/03/20 00:55:13;;;;;;;13.07;7.63;;;12.00;99.90;;;;;;5093338;28;20168;-81
2024/03/20 00:57:38;;;;;;;12.83;7.10;;;12.00;99.90;;;;;;5094201;28;20214;-80
2024/03/20 01:00:05;;;;;;;14.83;7.37;;;12.10;99.90;;;;;;5094174;28;20576;-80
2024/03/20 01:02:31;;;;;;;14.43;8.03;;;12.10;99.90;;;;;;5092847;28;20664;-80
2024/03/20 01:04:59;;;;;;;13.40;7.53;;;12.10;99.90;;;;;;5095447;28;20649;-80
2024/03/20 01:07:25;;;;;;;14.63;7.43;;;12.20;99.90;;;;;;5092675;28;20200;-81
2024/03/20 01:09:51;;;;;;;12.10;7.13;;;12.30;99.90;;;;;;5094211;28;20186;-79
2024/03/20 01:12:16;;;;;;;16.57;7.90;;;12.40;99.90;;;;;;5092108;28;20182;-80
2024/03/20 01:14:45;;;;;;;13.03;7.13;;;12.40;99.90;;;;;;5092469;28;20568;-80
2024/03/20 01:17:15;;;;;;;11.40;6.90;;;12.50;98.40;;;;;;5094117;28;20223;-80
2024/03/20 01:19:41;;;;;;;15.50;7.27;;;12.50;97.40;;;;;;5093612;28;20192;-81
2024/03/20 01:22:07;;;;;;;14.37;7.67;;;12.60;97.10;;;;;;5093953;28;20172;-81
2024/03/20 01:24:33;;;;;;;14.50;7.40;;;12.60;95.30;;;;;;5092209;28;20548;-79
2024/03/20 01:26:58;;;;;;;13.20;6.30;;;12.50;94.40;;;;;;5092685;28;20254;-79
2024/03/20 01:29:25;;;;;;;14.43;6.53;;;12.30;94.50;;;;;;5093907;28;20565;-80
2024/03/20 01:31:51;;;;;;;11.33;5.63;;;12.30;94.20;;;;;;5093460;28;20675;-79
2024/03/20 01:34:17;;;;;;;12.03;5.80;;;12.30;93.80;;;;;;5091962;28;20253;-79
2024/03/20 01:36:42;;;;;;;13.13;5.20;;;12.30;92.50;;;;;;5094354;28;20613;-80
2024/03/20 01:39:08;;;;;;;10.60;5.30;;;12.40;92.40;;;;;;5092932;28;20177;-79
2024/03/20 01:41:34;;;;;;;12.37;5.53;;;12.40;91.60;;;;;;5092307;28;20547;-79
2024/03/20 01:43:59;;;;;;;11.53;5.70;;;12.40;90.90;;;;;;5092589;28;20261;-79
2024/03/20 01:46:28;;;;;;;11.37;5.43;;;12.50;90.10;;;;;;5091562;28;20533;-80
2024/03/20 01:48:55;;;;;;;10.60;5.80;;;12.50;89.30;;;;;;5092965;28;20175;-79
2024/03/20 01:51:21;;;;;;;13.30;6.67;;;12.60;86.80;;;;;;5090705;28;20173;-79
2024/03/20 01:53:48;;;;;;;13.53;5.97;;;12.60;85.20;;;;;;5091851;28;20267;-79
2024/03/20 01:56:14;;;;;;;10.83;5.90;;;12.60;84.70;;;;;;5092091;28;20177;-81
2024/03/20 01:58:39;;;;;;;9.23;5.50;;;12.70;84.10;;;;;;5091787;28;20289;-80
2024/03/20 02:01:05;;;;;;;11.10;5.97;;;12.80;82.10;;;;;;5091963;28;20255;-80
2024/03/20 02:03:31;;;;;;;12.93;6.07;;;12.80;81.40;;;;;;5092797;28;20666;-78
2024/03/20 02:05:56;;;;;;;14.03;6.23;;;12.90;80.90;;;;;;5092599;28;20604;-78
2024/03/20 02:08:22;;;;;;;13.20;6.23;;;12.90;78.60;;;;;;5091710;28;20200;-80
2024/03/20 02:10:48;;;;;;;13.37;6.67;;;12.90;77.60;;;;;;5093437;28;20173;-78
2024/03/20 02:13:13;;;;;;;12.03;6.73;;;12.90;77.80;;;;;;5092980;28;20180;-79
2024/03/20 02:15:39;;;;;;;13.23;7.10;;;12.80;78.40;;;;;;5090876;28;20272;-79
2024/03/20 02:18:05;;;;;;;13.67;6.63;;;12.70;80.00;;;;;;5092632;28;20315;-79
2024/03/20 02:20:31;;;;;;;13.30;7.07;;;12.80;82.20;;;;;;5092174;28;20635;-79
2024/03/20 02:23:00;;;;;;;16.53;7.57;;;12.80;80.50;;;;;;5092124;28;20214;-79
2024/03/20 02:25:29;;;;;;;15.23;6.50;;;12.90;78.50;;;;;;5093271;28;20249;-80
2024/03/20 02:27:55;;;;;;;11.67;6.90;;;12.90;79.20;;;;;;5092086;28;20242;-79
2024/03/20 02:30:21;;;;;;;13.03;7.70;;;12.80;80.40;;;;;;5091402;28;20619;-80
2024/03/20 02:32:46;;;;;;;14.53;7.93;;;12.90;80.40;;;;;;5092960;28;20179;-79
2024/03/20 02:35:12;;;;;;;12.93;7.63;;;12.90;80.30;;;;;;5090290;28;20174;-78
2024/03/20 02:37:38;;;;;;;14.40;7.70;;;12.80;81.50;;;;;;5090117;28;20739;-79
2024/03/20 02:40:05;;;;;;;12.07;7.60;;;12.70;82.90;;;;;;5090599;28;20541;-80
2024/03/20 02:42:34;;;;;;;18.07;8.33;;;12.60;88.70;;;;;;5090921;28;20209;-78
2024/03/20 02:45:00;;;;;;;17.53;8.33;;;12.60;89.30;;;;;;5092184;28;20220;-79
2024/03/20 02:47:26;;;;;;;13.23;7.70;;;12.40;91.70;;;;;;5092060;28;20160;-80
2024/03/20 02:49:53;;;;;;;16.93;8.77;;;12.30;92.70;;;;;;5092856;28;20635;-79
2024/03/20 02:52:22;;;;;;;14.40;7.97;;;12.20;95.10;;;;;;5090804;28;20174;-79
2024/03/20 02:54:48;;;;;;;14.67;7.93;;;12.00;96.70;;;;;;5090085;28;20173;-78
2024/03/20 02:57:14;;;;;;;14.80;8.27;;;11.90;99.30;;;;;;5092612;28;20177;-79
2024/03/20 02:59:40;;;;;;;13.10;8.70;;;11.90;99.90;;;;;;5092203;28;20176;-79
2024/03/20 03:02:05;;;;;;;15.40;8.80;;;11.80;99.90;;;;;;5091532;28;20670;-80
2024/03/20 03:04:31;;;;;;;17.07;8.87;;;11.90;99.90;;;;;;5091857;28;20535;-81
2024/03/20 03:06:58;;;;;;;18.27;9.43;;;11.90;99.90;;;;;;5091306;28;20195;-79
2024/03/20 03:09:24;;;;;;;16.90;8.93;;;11.80;99.90;;;;;;5090791;28;20176;-80
2024/03/20 03:11:51;;;;;;;15.50;9.63;;;11.90;99.90;;;;;;5090762;28;20642;-79
2024/03/20 03:14:17;;;;;;;15.13;9.40;;;11.80;99.90;;;;;;5092130;28;20225;-79
2024/03/20 03:16:42;;;;;;;15.47;9.63;;;11.80;99.90;;;;;;5091174;28;20211;-80
2024/03/20 03:19:09;;;;;;;16.87;9.87;;;11.80;99.90;;;;;;5091494;28;20167;-81
2024/03/20 03:21:36;;;;;;;18.30;9.37;;;11.70;99.90;;;;;;5091282;28;20620;-79
2024/03/20 03:24:04;;;;;;;15.93;9.23;;;11.60;99.90;;;;;;5091293;28;20303;-80
2024/03/20 03:26:30;;;;;;;16.00;10.43;;;11.60;99.90;;;;;;5091216;28;20173;-79
2024/03/20 03:28:56;;;;;;;14.00;9.00;;;11.50;99.90;;;;;;5090916;28;20228;-79
2024/03/20 03:31:22;;;;;;;16.23;9.47;;;11.50;99.90;;;;;;5089363;28;20176;-78
2024/03/20 03:33:47;;;;;;;13.13;10.07;;;11.40;99.90;;;;;;5092329;28;20236;-79
2024/03/20 03:36:13;;;;;;;18.17;10.27;;;11.40;99.90;;;;;;5093926;28;20487;-79
2024/03/20 03:38:38;;;;;;;19.60;10.10;;;11.40;99.90;;;;;;5095528;28;20581;-81
2024/03/20 03:41:05;;;;;;;12.77;9.57;;;11.30;99.90;;;;;;5093751;28;20627;-80
2024/03/20 03:43:30;;;;;;;19.13;9.97;;;11.30;99.90;;;;;;5095253;28;20333;-79
2024/03/20 03:45:57;;;;;;;14.90;9.90;;;11.30;99.90;;;;;;5094545;28;20270;-79
2024/03/20 03:48:26;;;;;;;20.03;10.93;;;11.20;99.90;;;;;;5093820;28;20183;-80
2024/03/20 03:50:52;;;;;;;19.13;10.43;;;11.20;99.90;;;;;;5094210;28;20175;-81
2024/03/20 03:53:18;;;;;;;19.43;10.80;;;11.20;99.90;;;;;;5093825;28;20225;-79
2024/03/20 03:55:45;;;;;;;15.87;10.33;;;11.10;99.90;;;;;;5093447;28;20168;-79
2024/03/20 03:58:10;;;;;;;18.80;10.97;;;11.10;99.90;;;;;;5093570;28;20168;-79
2024/03/20 04:00:36;;;;;;;19.53;11.23;;;11.10;99.90;;;;;;5094222;28;20159;-79
2024/03/20 04:03:03;;;;;;;14.37;11.13;;;11.10;99.90;;;;;;5095777;28;20273;-79
2024/03/20 04:05:30;;;;;;;18.53;10.83;;;11.10;99.90;;;;;;5094020;28;20236;-80
2024/03/20 04:07:56;;;;;;;17.57;11.27;;;11.00;99.90;;;;;;5094064;28;20193;-80
2024/03/20 04:10:22;;;;;;;16.17;10.27;;;11.00;99.90;;;;;;5092706;28;20254;-78
2024/03/20 04:12:47;;;;;;;21.63;11.50;;;10.90;99.90;;;;;;5093046;28;20173;-79
2024/03/20 04:15:13;;;;;;;19.17;11.13;;;11.00;99.90;;;;;;5095326;28;20206;-80
2024/03/20 04:17:40;;;;;;;16.93;10.73;;;11.00;99.90;;;;;;5095292;28;20780;-79
2024/03/20 04:20:07;;;;;;;16.53;10.50;;;11.00;99.90;;;;;;5095408;28;20213;-81
2024/03/20 04:22:33;;;;;;;18.53;10.27;;;11.00;99.90;;;;;;5093452;28;20235;-79
2024/03/20 04:24:59;;;;;;;19.43;11.03;;;11.00;99.90;;;;;;5094244;28;20203;-80
2024/03/20 04:27:25;;;;;;;17.97;11.03;;;11.10;99.90;;;;;;5095213;28;20167;-79
2024/03/20 04:29:51;;;;;;;23.27;11.23;;;11.10;99.90;;;;;;5094179;28;20221;-78
2024/03/20 04:32:19;;;;;;;19.13;10.70;;;11.20;99.90;;;;;;5094252;28;20169;-80
2024/03/20 04:34:44;;;;;;;21.53;11.27;;;11.20;99.90;;;;;;5094672;28;20167;-79
2024/03/20 04:37:10;;;;;;;18.23;10.70;;;11.20;99.90;;;;;;5092590;28;20170;-79
2024/03/20 04:39:36;;;;;;;18.07;10.90;;;11.20;99.90;;;;;;5093736;28;20169;-79
2024/03/20 04:42:02;;;;;;;18.50;10.93;;;11.20;99.90;;;;;;5094811;28;20165;-80
2024/03/20 04:44:29;;;;;;;14.00;9.97;;;11.10;99.90;;;;;;5094992;28;20687;-79
2024/03/20 04:46:54;;;;;;;19.27;10.07;;;11.00;99.90;;;;;;5092218;28;20530;-80
2024/03/20 04:49:20;;;;;;;15.87;10.20;;;11.00;99.90;;;;;;5092782;28;20176;-80
2024/03/20 04:51:46;;;;;;;19.37;10.10;;;11.10;99.90;;;;;;5094301;28;20301;-79
2024/03/20 04:54:14;;;;;;;20.03;11.37;;;11.10;99.90;;;;;;5094453;28;20172;-79
2024/03/20 04:56:40;;;;;;;17.87;11.13;;;11.10;99.90;;;;;;5091246;28;20172;-80
2024/03/20 04:59:06;;;;;;;15.93;10.83;;;11.10;99.90;;;;;;5093155;28;20584;-80
2024/03/20 05:01:32;;;;;;;22.80;11.60;;;11.10;99.90;;;;;;5094009;28;20175;-79
2024/03/20 05:03:58;;;;;;;18.57;11.30;;;10.90;99.90;;;;;;5092076;28;20594;-80
2024/03/20 05:06:24;;;;;;;19.70;11.60;;;10.90;99.90;;;;;;5094011;28;20648;-78
2024/03/20 05:08:50;;;;;;;17.57;11.47;;;10.80;99.90;;;;;;5092141;28;20203;-80
2024/03/20 05:11:15;;;;;;;18.67;11.50;;;10.70;99.90;;;;;;5092292;28;20178;-79
2024/03/20 05:13:41;;;;;;;27.57;12.30;;;10.60;99.90;;;;;;5093576;28;20193;-80
2024/03/20 05:16:10;;;;;;;20.40;12.20;;;10.70;99.90;;;;;;5093462;28;20182;-79
2024/03/20 05:18:35;;;;;;;21.20;13.03;;;10.80;99.90;;;;;;5093990;28;20171;-79
2024/03/20 05:21:01;;;;;;;17.83;13.20;;;10.80;99.90;;;;;;5092098;28;20542;-79
2024/03/20 05:23:27;;;;;;;19.97;13.57;;;11.00;99.90;;;;;;5092111;28;20710;-79
2024/03/20 05:25:56;;;;;;;18.97;13.07;;;11.00;99.90;;;;;;5092333;28;20179;-81
2024/03/20 05:28:24;;;;;;;19.53;12.47;;;10.90;99.90;;;;;;5094125;28;20221;-80
2024/03/20 05:30:50;;;;;;;17.93;12.50;;;10.70;99.90;;;;;;5094031;28;20649;-80
2024/03/20 05:33:17;;;;;;;23.70;13.27;;;10.60;99.90;;;;;;5094066;28;20246;-80
2024/03/20 05:35:43;;;;;;;23.43;13.47;;;10.70;99.90;;;;;;5092350;28;20607;-78
2024/03/20 05:38:09;;;;;;;23.63;13.87;;;10.80;99.90;;;;;;5093597;28;20173;-79
2024/03/20 05:40:35;;;;;;;20.63;13.73;;;10.90;99.90;;;;;;5093455;28;20497;-78
2024/03/20 05:43:01;;;;;;;23.47;13.27;;;10.90;99.90;;;;;;5091976;28;20353;-80
2024/03/20 05:45:27;;;;;;;24.83;14.30;;;11.00;99.90;;;;;;5093191;28;20207;-79
2024/03/20 05:47:53;;;;;;;21.83;13.73;;;11.00;99.90;;;;;;5093224;28;20205;-82
2024/03/20 05:50:18;;;;;;;24.00;14.63;;;10.80;99.90;;;;;;5092245;28;20183;-83
2024/03/20 05:52:44;;;;;;;24.23;14.03;;;10.80;99.90;;;;;;5092814;28;20541;-84
2024/03/20 05:55:12;;;;;;;21.33;13.93;;;10.70;99.90;;;;;;5091950;28;20266;-84
2024/03/20 05:57:37;;;;;;;25.10;13.53;;;10.80;99.90;;;;;;5093099;28;20731;-86
2024/03/20 06:00:04;;;;;;;23.87;13.87;;;10.80;99.90;;;;;;5093383;28;20204;-81
2024/03/20 06:02:29;;;;;;;25.40;13.80;;;10.80;99.90;;;;;;5093314;28;20282;-79
2024/03/20 06:04:55;;;;;;;23.47;14.97;;;10.80;99.90;;;;;;5092578;28;20208;-83
2024/03/20 06:07:20;;;;;;;20.60;13.23;;;10.80;99.90;;;;;;5093471;28;20727;-79
2024/03/20 06:09:46;;;;;;;20.93;13.87;;;10.90;99.90;;;;;;5093483;28;20313;-84
2024/03/20 06:12:12;;;;;;;22.57;12.97;;;10.80;99.90;;;;;;5091683;28;20176;-81
2024/03/20 06:14:37;;;;;;;20.63;13.83;;;10.90;99.90;;;;;;5090541;28;20203;-82
2024/03/20 06:17:04;;;;;;;21.60;13.43;;;11.10;99.90;;;;;;5093672;28;20181;-80
2024/03/20 06:19:30;;;;;;;24.27;14.07;;;11.20;99.90;;;;;;5092644;28;20232;-84
2024/03/20 06:21:56;;;;;;;21.70;13.87;;;11.40;99.90;;;;;;5091275;28;20206;-83
2024/03/20 06:24:21;;;;;;;29.53;14.83;;;11.60;99.90;;;;;;5093144;28;20570;-81
2024/03/20 06:26:47;;;;;;;23.97;13.73;;;11.60;99.90;;;;;;5089717;28;20640;-78
2024/03/20 06:29:13;;;;;;;20.63;14.03;;;11.70;99.90;;;;;;5093195;28;20653;-80
2024/03/20 06:31:39;;;;;;;25.83;16.83;;;11.80;99.90;;;;;;5092384;28;20173;-80
2024/03/20 06:34:10;;;;;;;25.97;16.23;;;11.80;99.90;;;;;;5090397;28;20164;-79
2024/03/20 06:36:38;;;;;;;25.40;13.97;;;12.00;99.90;;;;;;5092512;28;20197;-82
2024/03/20 06:39:07;;;;;;;20.97;14.20;;;12.10;99.90;;;;;;5093477;28;20170;-84
2024/03/20 06:41:33;;;;;;;20.33;14.53;;;12.20;99.90;;;;;;5093556;28;20185;-84
2024/03/20 06:44:00;;;;;;;18.90;13.57;;;12.40;99.90;;;;;;5093308;28;20214;-84
2024/03/20 06:46:26;;;;;;;20.87;14.57;;;12.50;99.90;;;;;;5092321;28;20166;-78
2024/03/20 06:48:54;;;;;;;22.83;14.40;;;12.50;99.90;;;;;;5092228;28;20201;-79
2024/03/20 06:51:20;;;;;;;21.67;14.77;;;12.60;99.90;;;;;;5092691;28;20186;-84
2024/03/20 06:53:47;;;;;;;21.07;14.53;;;12.70;98.20;;;;;;5091894;28;20696;-81
2024/03/20 06:56:13;;;;;;;23.83;15.53;;;12.80;97.80;;;;;;5092405;28;20171;-83
2024/03/20 06:58:39;;;;;;;22.03;14.87;;;13.00;97.10;;;;;;5089764;28;20230;-83
2024/03/20 07:01:04;;;;;;;19.90;15.00;;;13.00;95.80;;;;;;5091246;28;20475;-81
2024/03/20 07:03:30;;;;;;;25.07;15.20;;;13.10;95.20;;;;;;5093947;28;20686;-85
2024/03/20 07:05:57;;;;;;;24.50;14.17;;;13.20;93.60;;;;;;5093155;28;20684;-85
2024/03/20 07:08:24;;;;;;;21.93;16.67;;;13.20;91.40;;;;;;5090368;28;20614;-81
2024/03/20 07:10:51;;;;;;;24.90;16.80;;;13.30;90.50;;;;;;5090495;28;20175;-79
2024/03/20 07:13:16;;;;;;;24.63;15.93;;;13.40;89.00;;;;;;5086200;28;20182;-83
2024/03/20 07:15:44;;;;;;;24.67;16.73;;;13.50;87.10;;;;;;5088038;28;20662;-85
2024/03/20 07:18:10;;;;;;;18.90;14.80;;;13.60;84.50;;;;;;5091236;28;20168;-86
2024/03/20 07:20:35;;;;;;;19.80;15.00;;;13.70;81.80;;;;;;5086445;28;20619;-84
2024/03/20 07:23:04;;;;;;;30.17;15.80;;;13.80;79.10;;;;;;5089190;28;20667;-86
2024/03/20 07:25:31;;;;;;;28.53;16.33;;;13.80;78.30;;;;;;5090520;28;20647;-89
2024/03/20 07:27:59;;;;;;;31.00;14.83;;;13.80;73.70;;;;;;5089790;28;20236;-86
2024/03/20 07:30:24;;;;;;;29.47;15.80;;;13.90;72.90;;;;;;5089324;28;20193;-87
2024/03/20 07:32:53;;;;;;;24.27;14.93;;;14.00;68.70;;;;;;5089610;28;20624;-83
2024/03/20 07:35:23;;;;;;;26.87;14.57;;;14.00;62.50;;;;;;5088280;28;20191;-82
2024/03/20 07:37:51;;;;;;;24.77;14.50;;;14.00;64.10;;;;;;5089709;28;20182;-87
2024/03/20 07:40:17;;;;;;;27.07;14.57;;;14.00;64.70;;;;;;5090152;28;20205;-81
2024/03/20 07:42:43;;;;;;;25.20;13.30;;;14.10;63.20;;;;;;5082751;28;20287;-83
2024/03/20 07:45:09;;;;;;;20.57;13.13;;;14.00;65.60;;;;;;5086051;28;20267;-82
2024/03/20 07:47:37;;;;;;;18.57;13.03;;;14.00;66.50;;;;;;5087840;28;20171;-84
2024/03/20 07:50:04;;;;;;;19.07;13.27;;;14.10;66.50;;;;;;5087215;28;20346;-82
2024/03/20 07:52:30;;;;;;;23.83;13.00;;;14.10;64.90;;;;;;5089975;28;20168;-81
2024/03/20 07:55:00;;;;;;;22.23;13.53;;;14.20;62.70;;;;;;5089689;28;20260;-83
2024/03/20 07:57:26;;;;;;;20.07;13.77;;;14.30;56.90;;;;;;5089196;28;20182;-81
2024/03/20 07:59:52;;;;;;;25.37;14.03;;;14.30;51.60;;;;;;5089163;28;20171;-83
2024/03/20 08:02:21;;;;;;;19.20;13.33;;;14.20;52.00;;;;;;5090099;28;20188;-82
2024/03/20 08:04:48;;;;;;;18.50;13.17;;;14.30;54.50;;;;;;5091139;28;20184;-81
2024/03/20 08:07:13;;;;;;;21.07;11.97;;;14.30;57.80;;;;;;5091779;28;20313;-82
2024/03/20 08:09:39;;;;;;;25.20;12.57;;;14.30;60.90;;;;;;5090364;28;20274;-82
2024/03/20 08:12:05;;;;;;;17.93;12.00;;;14.30;58.50;;;;;;5091470;28;20174;-83
2024/03/20 08:14:30;;;;;;;20.90;13.73;;;14.40;57.70;;;;;;5091318;28;20650;-83
2024/03/20 08:16:56;;;;;;;15.53;11.00;;;14.50;55.20;;;;;;5091606;28;20175;-83
2024/03/20 08:19:21;;;;;;;15.87;11.97;;;14.60;53.10;;;;;;5090531;28;20538;-82
2024/03/20 08:21:49;;;;;;;16.23;11.37;;;14.70;50.10;;;;;;5092405;28;20537;-83
2024/03/20 08:24:15;;;;;;;15.77;10.90;;;14.80;46.40;;;;;;5094207;28;20211;-81
2024/03/20 08:26:41;;;;;;;15.37;11.17;;;14.90;46.50;;;;;;5094410;28;20267;-83
2024/03/20 08:29:08;;;;;;;14.40;10.53;;;15.00;44.50;;;;;;5094737;28;20211;-87
2024/03/20 08:31:33;;;;;;;17.93;10.83;;;15.00;48.00;;;;;;5094493;28;20185;-85
2024/03/20 08:33:59;;;;;;;14.47;11.10;;;15.00;49.60;;;;;;5095844;28;20179;-85
2024/03/20 08:36:25;;;;;;;15.80;10.07;;;15.20;45.80;;;;;;5094444;28;20577;-83
2024/03/20 08:38:50;;;;;;;15.47;10.17;;;15.30;45.90;;;;;;5093708;28;20597;-81
2024/03/20 08:41:16;;;;;;;15.13;9.57;;;15.30;48.40;;;;;;5093340;28;20520;-78
2024/03/20 08:43:42;;;;;;;12.17;9.63;;;15.70;49.70;;;;;;5094946;28;20209;-83
2024/03/20 08:46:10;;;;;;;14.00;9.03;;;15.90;42.90;;;;;;5096053;28;20173;-82
2024/03/20 08:48:36;;;;;;;15.10;9.57;;;16.00;35.70;;;;;;5094565;28;20209;-84
2024/03/20 08:51:02;;;;;;;12.03;9.20;;;16.00;30.20;;;;;;5093115;28;20583;-82
2024/03/20 08:53:30;;;;;;;14.77;9.53;;;16.20;27.70;;;;;;5093371;28;20220;-83
2024/03/20 08:55:56;;;;;;;12.90;8.50;;;16.20;22.50;;;;;;5093171;28;20229;-83
2024/03/20 08:58:30;;;;;;;12.10;9.23;;;16.30;20.00;;;;;;5092491;28;20639;-86
2024/03/20 09:00:59;;;;;;;10.07;8.47;;;16.40;19.30;;;;;;5092210;28;20265;-83
2024/03/20 09:03:25;;;;;;;12.60;8.63;;;16.60;19.50;;;;;;5092792;28;20645;-83
2024/03/20 09:05:51;;;;;;;10.33;8.70;;;16.70;13.90;;;;;;5093624;28;20178;-84
2024/03/20 09:08:16;;;;;;;11.40;8.30;;;16.80;9.30;;;;;;5092706;28;20190;-84
2024/03/20 09:10:42;;;;;;;12.73;8.47;;;16.90;6.50;;;;;;5093326;28;20688;-85
2024/03/20 09:13:08;;;;;;;11.90;8.77;;;16.70;7.70;;;;;;5092256;28;20721;-76
2024/03/20 09:15:33;;;;;;;11.63;8.53;;;16.70;6.10;;;;;;5094843;28;20523;-87
2024/03/20 09:17:59;;;;;;;11.23;8.23;;;16.80;10.60;;;;;;5095519;28;20183;-89
2024/03/20 09:20:25;;;;;;;13.23;8.60;;;16.80;5.80;;;;;;5095424;28;20174;-86
2024/03/20 09:22:55;;;;;;;10.70;8.27;;;16.90;5.80;;;;;;5094751;28;20677;-88
2024/03/20 09:25:21;;;;;;;10.60;8.90;;;16.90;10.20;;;;;;5095036;28;20168;-89
2024/03/20 09:27:48;;;;;;;15.90;8.63;;;16.90;4.20;;;;;;5093013;28;20175;-86
2024/03/20 09:30:18;;;;;;;12.33;8.67;;;16.90;3.30;;;;;;5093766;28;20193;-82
2024/03/20 09:32:44;;;;;;;12.10;8.60;;;17.00;5.40;;;;;;5094030;28;20249;-81
2024/03/20 09:35:12;;;;;;;15.73;8.50;;;17.10;3.20;;;;;;5088709;28;20250;-78
2024/03/20 09:37:38;;;;;;;11.77;8.33;;;17.10;1.30;;;;;;5093348;28;20205;-84
2024/03/20 09:40:10;;;;;;;13.23;8.57;;;17.10;2.20;;;;;;5093660;28;20178;-79
2024/03/20 09:42:37;;;;;;;11.43;8.47;;;17.10;9.00;;;;;;5092522;28;20198;-79
2024/03/20 09:45:04;;;;;;;12.70;8.70;;;17.00;5.10;;;;;;5107349;28;20178;-80
2024/03/20 09:47:32;;;;;;;13.80;8.87;;;17.10;7.90;;;;;;5100782;28;20542;-84
2024/03/20 09:49:58;;;;;;;15.87;8.60;;;17.20;4.20;;;;;;5092268;28;20178;-80
2024/03/20 09:52:25;;;;;;;14.03;7.97;;;17.30;4.50;;;;;;5091466;28;20175;-82
2024/03/20 09:54:52;;;;;;;13.87;8.53;;;17.40;3.30;;;;;;5090057;28;20186;-84
2024/03/20 09:57:17;;;;;;;14.33;8.70;;;17.30;1.00;;;;;;5092078;28;20175;-85
2024/03/20 09:59:47;;;;;;;15.57;8.27;;;17.40;1.60;;;;;;5092829;28;20209;-86
2024/03/20 10:02:13;;;;;;;12.43;8.20;;;17.50;1.00;;;;;;5092136;28;20191;-84
2024/03/20 10:04:39;;;;;;;16.23;8.63;;;17.70;1.00;;;;;;5092774;28;20211;-84
2024/03/20 10:07:15;;;;;;;14.87;7.63;;;17.80;1.00;;;;;;5092123;28;20668;-83
2024/03/20 10:09:44;;;;;;;17.03;8.40;;;18.00;1.00;;;;;;5091692;28;20583;-84
2024/03/20 10:12:14;;;;;;;9.53;7.13;;;18.20;1.00;;;;;;5091566;28;20267;-83
2024/03/20 10:14:41;;;;;;;9.60;7.57;;;18.10;1.00;;;;;;5092655;28;20276;-83
2024/03/20 10:17:14;;;;;;;12.30;7.17;;;17.90;1.00;;;;;;5091879;28;20203;-83
2024/03/20 10:19:42;;;;;;;11.40;7.90;;;18.00;1.00;;;;;;5091630;28;20604;-84
2024/03/20 10:22:09;;;;;;;11.43;7.30;;;18.10;1.00;;;;;;5091517;28;20179;-83
2024/03/20 10:24:35;;;;;;;13.40;8.17;;;18.10;1.00;;;;;;5091369;28;20241;-83
2024/03/20 10:27:02;;;;;;;10.13;7.87;;;18.30;1.00;;;;;;5091664;28;20200;-83
2024/03/20 10:29:33;;;;;;;10.77;7.20;;;18.20;1.00;;;;;;5092952;28;20194;-84
2024/03/20 10:32:01;;;;;;;10.47;7.70;;;18.30;1.00;;;;;;5091369;28;20223;-83
2024/03/20 10:34:27;;;;;;;8.67;7.20;;;18.40;1.00;;;;;;5091555;28;20181;-82
2024/03/20 10:36:54;;;;;;;14.47;8.00;;;18.50;1.00;;;;;;5094903;28;20177;-83
2024/03/20 10:39:23;;;;;;;12.40;7.90;;;18.50;1.00;;;;;;5091017;28;20254;-83
2024/03/20 10:41:55;;;;;;;13.40;8.33;;;18.50;1.00;;;;;;5091407;28;20171;-82
2024/03/20 10:44:22;;;;;;;11.80;8.73;;;18.60;1.00;;;;;;5091171;28;20205;-83
2024/03/20 10:46:53;;;;;;;12.67;8.63;;;18.40;1.00;;;;;;5091965;28;20253;-84
2024/03/20 10:49:21;;;;;;;13.63;8.60;;;18.30;1.00;;;;;;5091356;28;20710;-82
2024/03/20 10:51:48;;;;;;;9.93;8.00;;;18.30;1.00;;;;;;5091248;28;20281;-82
2024/03/20 10:54:14;;;;;;;11.67;7.93;;;18.30;1.00;;;;;;5090735;28;20207;-82
2024/03/20 10:57:00;;;;;;;14.43;7.93;;;18.50;1.00;;;;;;5091427;28;20224;-84
2024/03/20 10:59:26;;;;;;;16.23;8.07;;;18.70;1.00;;;;;;5090373;28;20178;-82
2024/03/20 11:02:05;;;;;;;11.50;7.70;;;18.70;1.00;;;;;;5092466;28;20179;-84
2024/03/20 11:04:42;;;;;;;13.13;7.73;;;18.80;1.00;;;;;;5092304;28;20206;-82
2024/03/20 11:07:29;;;;;;;11.13;8.20;;;18.90;1.00;;;;;;5091010;28;20188;-84
2024/03/20 11:10:15;;;;;;;10.80;8.30;;;18.90;1.00;;;;;;5090627;28;20243;-82
2024/03/20 11:12:40;;;;;;;11.23;7.90;;;19.10;1.00;;;;;;5091235;28;20239;-83
2024/03/20 11:15:06;;;;;;;12.60;7.17;;;19.20;1.00;;;;;;5091207;28;20670;-83
2024/03/20 11:17:36;;;;;;;9.37;7.77;;;19.40;1.00;;;;;;5090985;28;20628;-83
2024/03/20 11:20:09;;;;;;;11.63;7.37;;;19.50;1.00;;;;;;5090554;28;20168;-84
2024/03/20 11:22:43;;;;;;;11.13;7.23;;;19.60;1.00;;;;;;5090858;28;20325;-83
2024/03/20 11:25:11;;;;;;;9.77;7.03;;;19.80;1.00;;;;;;5090481;28;20215;-84
2024/03/20 11:27:37;;;;;;;8.83;7.27;;;19.90;1.00;;;;;;5092195;28;20301;-84
2024/03/20 11:30:05;;;;;;;9.80;7.43;;;20.20;1.00;;;;;;5090727;28;20171;-83
2024/03/20 11:32:31;;;;;;;7.97;7.03;;;20.20;1.00;;;;;;5092027;28;20301;-83
2024/03/20 11:34:56;;;;;;;10.60;7.53;;;19.90;1.00;;;;;;5090753;28;20225;-82
2024/03/20 11:37:22;;;;;;;11.70;7.80;;;19.80;1.00;;;;;;5091949;28;20252;-84
2024/03/20 11:39:47;;;;;;;9.90;7.37;;;19.60;1.00;;;;;;5090533;28;20643;-83
2024/03/20 11:42:13;;;;;;;10.63;7.30;;;19.70;1.00;;;;;;5090628;28;20171;-82
2024/03/20 11:44:40;;;;;;;10.40;6.90;;;19.90;1.00;;;;;;5090451;28;20257;-82
2024/03/20 11:47:15;;;;;;;9.47;6.90;;;19.90;1.00;;;;;;5090574;28;20183;-83
2024/03/20 11:49:42;;;;;;;8.47;4.63;;;19.80;1.00;;;;;;5090602;28;20178;-82
2024/03/20 11:52:16;;;;;;;7.77;5.17;;;19.70;1.00;;;;;;5090170;28;20176;-83
2024/03/20 11:54:44;;;;;;;10.17;5.93;;;19.80;1.00;;;;;;5090230;28;20175;-83
2024/03/20 11:57:12;;;;;;;7.70;6.40;;;20.00;1.00;;;;;;5090552;28;20218;-82
2024/03/20 11:59:39;;;;;;;8.13;6.00;;;20.10;1.00;;;;;;5093540;28;20178;-83
2024/03/20 12:02:09;;;;;;;9.80;5.70;;;20.20;1.00;;;;;;5093530;28;20265;-83
2024/03/20 12:04:35;;;;;;;8.67;5.97;;;20.50;1.00;;;;;;5093955;28;20209;-83
2024/03/20 12:07:01;;;;;;;8.33;5.80;;;20.70;1.00;;;;;;5093853;28;20217;-82
2024/03/20 12:09:26;;;;;;;6.97;5.93;;;20.80;1.00;;;;;;5094362;28;20250;-83
2024/03/20 12:11:52;;;;;;;7.87;6.10;;;20.80;1.00;;;;;;5091918;28;20264;-83
2024/03/20 12:14:18;;;;;;;7.33;6.37;;;20.60;1.00;;;;;;5094122;28;20243;-83
2024/03/20 12:16:44;;;;;;;9.97;6.83;;;20.50;1.00;;;;;;5095369;28;20581;-82
2024/03/20 12:19:10;;;;;;;9.13;6.47;;;20.20;1.00;;;;;;5093755;28;20724;-80
2024/03/20 12:21:35;;;;;;;9.50;6.30;;;20.10;1.00;;;;;;5094848;28;20248;-81
2024/03/20 12:24:01;;;;;;;8.97;6.30;;;20.00;1.00;;;;;;5094721;28;20702;-83
2024/03/20 12:26:28;;;;;;;8.47;6.00;;;20.00;1.00;;;;;;5093432;28;20182;-83
2024/03/20 12:28:55;;;;;;;10.53;5.97;;;20.20;1.00;;;;;;5094018;28;20178;-81
2024/03/20 12:31:22;;;;;;;8.27;5.63;;;20.50;1.00;;;;;;5094609;28;20206;-83
2024/03/20 12:33:52;;;;;;;8.20;5.73;;;20.80;1.00;;;;;;5093351;28;20194;-80